createdAt,value
2022-10-18T00:04:18.031Z,51.27
2022-10-18T00:09:19.819Z,51.35
2022-10-18T00:14:21.711Z,51.00
2022-10-18T00:19:25.965Z,50.91
2022-10-18T00:24:30.543Z,51.00
2022-10-18T00:29:32.256Z,50.78
2022-10-18T00:34:34.052Z,50.74
2022-10-18T00:39:36.438Z,50.61
2022-10-18T00:44:38.877Z,50.69
2022-10-18T00:49:49.183Z,50.50
2022-10-18T00:54:52.355Z,50.73
2022-10-18T00:59:54.481Z,50.73
2022-10-18T01:04:56.392Z,50.75
2022-10-18T01:10:36.866Z,50.44
2022-10-18T01:15:50.872Z,50.53
2022-10-18T01:21:14.764Z,50.68
2022-10-18T01:26:19.424Z,50.79
2022-10-18T01:31:24.136Z,50.71
2022-10-18T01:36:45.663Z,51.00
2022-10-18T01:41:50.164Z,50.59
2022-10-18T01:46:55.209Z,50.75
2022-10-18T01:51:57.051Z,50.78
2022-10-18T01:57:03.553Z,50.61
2022-10-18T02:02:11.582Z,50.53
2022-10-18T02:07:33.551Z,50.55
2022-10-18T02:12:38.204Z,50.17
2022-10-18T02:17:41.130Z,50.46
2022-10-18T02:22:46.235Z,50.42
2022-10-18T02:27:48.174Z,50.57
2022-10-18T02:32:58.735Z,50.50
2022-10-18T02:38:00.793Z,50.42
2022-10-18T02:43:02.589Z,50.77
2022-10-18T02:48:04.612Z,50.16
2022-10-18T02:53:06.635Z,50.41
2022-10-18T02:58:08.485Z,50.20
2022-10-18T03:03:10.503Z,50.48
2022-10-18T03:08:12.275Z,50.50
2022-10-18T03:13:14.246Z,50.46
2022-10-18T03:18:16.177Z,50.35
2022-10-18T03:23:18.120Z,50.66
2022-10-18T03:28:20.197Z,50.54
2022-10-18T03:33:22.215Z,50.40
2022-10-18T03:38:24.456Z,50.29
2022-10-18T03:43:26.328Z,50.78
2022-10-18T03:48:28.488Z,50.56
2022-10-18T03:53:30.253Z,50.40
2022-10-18T03:58:31.942Z,50.29
2022-10-18T04:03:33.960Z,50.17
2022-10-18T04:08:36.247Z,50.49
2022-10-18T04:13:38.781Z,50.25
2022-10-18T04:18:40.900Z,50.44
2022-10-18T04:23:42.836Z,50.30
2022-10-18T04:28:44.951Z,50.35
2022-10-18T04:33:46.937Z,50.19
2022-10-18T04:38:48.838Z,50.55
2022-10-18T04:43:50.657Z,50.31
2022-10-18T04:48:52.436Z,50.32
2022-10-18T04:53:54.279Z,50.20
2022-10-18T04:58:56.211Z,50.28
2022-10-18T05:03:57.985Z,50.54
2022-10-18T05:08:59.775Z,50.49
2022-10-18T05:14:01.618Z,50.21
2022-10-18T05:19:05.932Z,50.60
2022-10-18T05:24:07.851Z,50.28
2022-10-18T05:29:09.902Z,50.21
2022-10-18T05:34:11.798Z,50.58
2022-10-18T05:39:13.777Z,50.76
2022-10-18T05:44:15.832Z,50.54
2022-10-18T05:49:17.833Z,50.65
2022-10-18T05:54:21.187Z,50.18
2022-10-18T05:59:23.002Z,50.37
2022-10-18T06:04:24.992Z,50.08
2022-10-18T06:09:27.531Z,50.33
2022-10-18T06:14:29.367Z,50.63
2022-10-18T06:19:31.158Z,51.25
2022-10-18T06:24:32.912Z,51.07
2022-10-18T06:29:36.688Z,50.88
2022-10-18T06:34:38.478Z,51.30
2022-10-18T06:39:41.204Z,52.16
2022-10-18T06:44:43.134Z,52.88
2022-10-18T06:49:44.972Z,52.86
2022-10-18T06:54:46.976Z,52.60
2022-10-18T06:59:50.616Z,52.78
2022-10-18T07:04:54.143Z,52.66
2022-10-18T07:09:56.018Z,53.75
2022-10-18T07:14:58.027Z,54.46
2022-10-18T07:19:59.998Z,54.10
2022-10-18T07:25:02.033Z,53.94
2022-10-18T07:30:08.966Z,54.72
2022-10-18T07:40:13.568Z,54.83
2022-10-18T07:45:15.411Z,53.77
2022-10-18T07:50:17.515Z,53.56
2022-10-18T07:55:19.435Z,52.99
2022-10-18T08:00:21.222Z,53.26
2022-10-18T08:05:23.116Z,52.66
2022-10-18T08:10:25.267Z,52.62
2022-10-18T08:15:27.095Z,52.57
2022-10-18T08:20:31.156Z,53.16
2022-10-18T08:25:33.477Z,53.38
2022-10-18T08:30:36.187Z,53.67
2022-10-18T08:35:38.234Z,53.43
2022-10-18T08:40:44.820Z,53.41
2022-10-18T08:45:46.651Z,53.89
2022-10-18T08:50:50.351Z,54.22
2022-10-18T08:56:00.986Z,54.29
2022-10-18T09:01:19.693Z,54.51
2022-10-18T09:06:40.131Z,53.71
2022-10-18T09:11:52.226Z,53.83
2022-10-18T09:17:13.677Z,53.81
2022-10-18T09:22:19.276Z,53.81
2022-10-18T09:27:29.197Z,53.90
2022-10-18T09:33:29.462Z,53.65
2022-10-18T09:38:45.491Z,52.61
2022-10-18T09:44:00.845Z,52.90
2022-10-18T09:49:07.155Z,52.34
2022-10-18T09:54:21.053Z,52.54
2022-10-18T09:59:40.852Z,52.10
2022-10-18T10:04:42.783Z,52.42
2022-10-18T10:09:48.095Z,52.09
2022-10-18T10:14:49.874Z,52.11
2022-10-18T10:20:13.845Z,51.98
2022-10-18T10:25:29.143Z,51.95
2022-10-18T10:30:36.406Z,51.78
2022-10-18T10:35:56.336Z,51.58
2022-10-18T10:40:58.461Z,51.56
2022-10-18T10:46:09.317Z,51.18
2022-10-18T10:51:11.922Z,51.32
2022-10-18T10:56:22.818Z,51.29
2022-10-18T11:01:31.733Z,51.44
2022-10-18T11:06:46.708Z,51.04
2022-10-18T11:12:05.466Z,51.12
2022-10-18T11:17:22.367Z,50.96
2022-10-18T11:22:27.780Z,51.04
2022-10-18T11:27:46.738Z,50.88
2022-10-18T11:33:02.124Z,51.52
2022-10-18T11:38:18.938Z,51.43
2022-10-18T11:43:38.880Z,51.25
2022-10-18T11:49:18.347Z,51.74
2022-10-18T11:54:32.640Z,51.80
2022-10-18T11:59:55.044Z,51.18
2022-10-18T12:10:37.788Z,51.30
2022-10-18T12:15:48.182Z,51.12
2022-10-18T12:20:55.177Z,50.63
2022-10-18T12:26:03.055Z,51.02
2022-10-18T12:31:10.688Z,50.71
2022-10-18T12:36:18.340Z,50.60
2022-10-18T12:41:25.535Z,51.04
2022-10-18T12:46:51.530Z,51.28
2022-10-18T12:51:59.871Z,51.47
2022-10-18T12:57:03.556Z,51.88
2022-10-18T13:02:05.877Z,51.75
2022-10-18T13:07:10.673Z,51.63
2022-10-18T13:12:13.294Z,51.98
2022-10-18T13:17:34.095Z,51.74
2022-10-18T13:23:17.845Z,51.99
2022-10-18T13:28:41.275Z,51.88
2022-10-18T13:33:43.561Z,51.95
2022-10-18T13:38:56.022Z,51.66
2022-10-18T13:44:22.762Z,51.58
2022-10-18T13:49:27.558Z,51.29
2022-10-18T13:54:35.767Z,51.59
2022-10-18T14:00:18.111Z,51.73
2022-10-18T14:05:58.206Z,51.14
2022-10-18T14:11:25.050Z,51.46
2022-10-18T14:16:42.284Z,51.66
2022-10-18T14:21:53.635Z,51.84
2022-10-18T14:27:18.775Z,51.83
2022-10-18T14:32:28.494Z,51.38
2022-10-18T14:37:37.277Z,51.51
2022-10-18T14:42:49.246Z,51.47
2022-10-18T14:47:51.421Z,51.46
2022-10-18T14:52:54.194Z,51.07
2022-10-18T14:57:56.169Z,51.02
2022-10-18T15:02:58.279Z,50.94
2022-10-18T15:08:00.401Z,51.45
2022-10-18T15:13:09.681Z,50.81
2022-10-18T15:18:22.998Z,51.06
2022-10-18T15:23:32.170Z,51.15
2022-10-18T15:28:50.137Z,50.95
2022-10-18T15:33:53.458Z,50.76
2022-10-18T15:39:19.792Z,50.75
2022-10-18T15:44:46.516Z,51.13
2022-10-18T15:49:58.654Z,50.67
2022-10-18T15:55:01.535Z,50.65
2022-10-18T16:00:08.552Z,50.56
2022-10-18T16:05:17.084Z,50.61
2022-10-18T16:10:18.897Z,50.65
2022-10-18T16:15:20.772Z,50.88
2022-10-18T16:20:25.079Z,51.14
2022-10-18T16:25:26.952Z,51.29
2022-10-18T16:30:34.310Z,50.58
2022-10-18T16:35:36.194Z,50.55
2022-10-18T16:40:41.137Z,50.39
2022-10-18T16:45:43.689Z,50.59
2022-10-18T16:50:46.053Z,50.50
2022-10-18T16:55:48.020Z,50.25
2022-10-18T17:00:50.641Z,50.47
2022-10-18T17:05:53.503Z,50.34
2022-10-18T17:10:58.439Z,50.59
2022-10-18T17:16:00.858Z,50.74
2022-10-18T17:21:03.428Z,50.42
2022-10-18T17:26:21.975Z,50.67
2022-10-18T17:31:29.208Z,51.13
2022-10-18T17:36:32.922Z,51.04
2022-10-18T17:41:34.788Z,50.77
2022-10-18T17:46:36.801Z,50.49
2022-10-18T17:51:38.673Z,50.78
2022-10-18T17:56:40.902Z,50.44
2022-10-18T18:01:42.799Z,50.49
2022-10-18T18:06:45.817Z,50.56
2022-10-18T18:11:48.668Z,50.38
2022-10-18T18:16:50.533Z,50.37
2022-10-18T18:21:53.977Z,50.36
2022-10-18T18:26:56.482Z,50.41
2022-10-18T18:31:59.603Z,50.35
2022-10-18T18:37:01.420Z,50.36
2022-10-18T18:42:04.360Z,50.10
2022-10-18T18:47:10.859Z,50.37
2022-10-18T18:52:14.956Z,50.02
2022-10-18T18:57:17.171Z,49.91
2022-10-18T19:02:19.042Z,50.11
2022-10-18T19:07:20.886Z,50.17
2022-10-18T19:12:22.684Z,49.89
2022-10-18T19:17:24.649Z,49.75
2022-10-18T19:22:26.475Z,50.01
2022-10-18T19:27:28.254Z,49.77
2022-10-18T19:32:29.931Z,49.90
2022-10-18T19:37:32.335Z,49.51
2022-10-18T19:42:34.638Z,49.82
2022-10-18T19:47:38.555Z,50.40
2022-10-18T19:52:40.473Z,49.84
2022-10-18T19:57:42.328Z,50.22
2022-10-18T20:02:44.219Z,50.03
2022-10-18T20:07:47.555Z,49.85
2022-10-18T20:12:49.289Z,49.91
2022-10-18T20:17:51.083Z,49.75
2022-10-18T20:22:52.925Z,49.74
2022-10-18T20:27:54.629Z,49.48
2022-10-18T20:32:56.340Z,49.75
2022-10-18T20:37:58.140Z,49.45
2022-10-18T20:43:03.667Z,49.59
2022-10-18T20:48:05.973Z,49.30
2022-10-18T20:53:07.850Z,49.80
2022-10-18T20:58:11.151Z,49.65
2022-10-18T21:08:34.592Z,50.13
2022-10-18T21:13:37.037Z,50.39
2022-10-18T21:18:40.558Z,50.38
2022-10-18T21:23:43.411Z,50.21
2022-10-18T21:28:46.060Z,49.95
2022-10-18T21:33:48.729Z,49.85
2022-10-18T21:38:50.715Z,49.94
2022-10-18T21:43:55.096Z,49.72
2022-10-18T21:48:57.646Z,49.81
2022-10-18T21:53:59.620Z,49.66
2022-10-18T21:59:04.940Z,49.39
2022-10-18T22:04:17.239Z,49.24
2022-10-18T22:09:21.290Z,49.60
2022-10-18T22:14:23.996Z,49.47
2022-10-18T22:19:25.790Z,49.36
2022-10-18T22:24:27.510Z,49.49
2022-10-18T22:29:29.566Z,49.43
2022-10-18T22:34:31.488Z,49.34
2022-10-18T22:39:33.214Z,49.11
2022-10-18T22:44:35.126Z,49.24
2022-10-18T22:49:37.094Z,49.26
2022-10-18T22:54:38.768Z,49.38
2022-10-18T22:59:40.529Z,49.33
2022-10-18T23:04:42.292Z,49.36
2022-10-18T23:09:43.972Z,49.13
2022-10-18T23:14:46.237Z,49.37
2022-10-18T23:19:48.170Z,48.99
2022-10-18T23:24:49.895Z,48.96
2022-10-18T23:29:51.916Z,49.26
2022-10-18T23:34:53.770Z,49.25
2022-10-18T23:39:55.674Z,49.10
2022-10-18T23:44:57.529Z,49.04
2022-10-18T23:49:59.379Z,49.14
2022-10-18T23:55:01.485Z,49.01
